Terminal Aerodrome Forecast
Issued by NWS South Bend, IN

Home | Current Version | Previous Version | Text Only | Print | Product List | Glossary Off
Versions: 1 2 3 4 5 6 7 8 9 10 11 12 13 14

000
FTUS43 KIWX 032300
TAFSBN
TAF
KSBN 032338Z 0400/0424 20011KT P6SM BKN070
      TEMPO 0407/0411 6SM -SHRA BKN050
     FM041100 22011KT P6SM -SHRA BKN050
     FM041700 24012KT 6SM -SHRA BR VCTS BKN035CB=

USA.gov is the U.S. government's official web portal to all federal, state and local government web resources and services.